Time,TemperatureF,DewpointF,PressureIn,WindDirection,WindDirectionDegrees,WindSpeedMPH,WindSpeedGustMPH,Humidity,HourlyPrecipIn,Conditions,Clouds,dailyrainin,SoftwareType,DateUTC
2013-11-01 00:00:00,43.3,35.3,29.95,WSW,247,1.0,4.0,73,0.00,CLR,,0.00,WeatherDisplay:10.37,2013-11-01 04:00:00,
2013-11-01 00:15:00,44.2,35.8,29.97,WNW,301,5.0,8.0,72,0.00,CLR,,0.00,WeatherDisplay:10.37,2013-11-01 04:15:00,
2013-11-01 00:30:00,42.1,35.4,29.97,NW,315,3.0,8.0,77,0.00,CLR,,0.00,WeatherDisplay:10.37,2013-11-01 04:30:00,
2013-11-01 00:45:00,41.7,35.4,29.98,NW,315,3.0,6.0,78,0.00,RA,,0.01,WeatherDisplay:10.37,2013-11-01 04:45:00,
2013-11-01 01:00:00,41.2,34.5,29.99,WNW,292,3.0,4.0,77,0.00,CLR,,0.01,WeatherDisplay:10.37,2013-11-01 05:00:00,
2013-11-01 01:15:00,40.3,33.6,30.00,WNW,288,1.0,4.0,77,0.00,CLR,,0.01,WeatherDisplay:10.37,2013-11-01 05:15:00,
2013-11-01 01:30:00,39.7,33.4,30.00,WNW,288,3.0,5.0,78,0.00,CLR,,0.01,WeatherDisplay:10.37,2013-11-01 05:30:00,
2013-11-01 01:45:00,38.5,32.5,30.00,West,259,1.0,5.0,79,0.00,CLR,,0.01,WeatherDisplay:10.37,2013-11-01 05:45:00,
2013-11-01 02:00:00,38.1,32.5,30.00,SW,225,1.0,4.0,80,0.00,CLR,,0.01,WeatherDisplay:10.37,2013-11-01 06:00:00,
2013-11-01 02:15:00,37.6,32.3,30.01,WSW,247,0.0,3.0,81,0.00,CLR,,0.01,WeatherDisplay:10.37,2013-11-01 06:15:00,
2013-11-01 02:30:00,37.4,32.4,30.01,WSW,247,0.0,2.0,82,0.00,CLR,,0.01,WeatherDisplay:10.37,2013-11-01 06:30:00,
2013-11-01 02:45:00,37.0,32.7,30.02,WSW,247,1.0,3.0,84,0.00,CLR,,0.01,WeatherDisplay:10.37,2013-11-01 06:45:00,
2013-11-01 03:00:00,36.7,32.3,30.03,West,270,1.0,4.0,84,0.00,CLR,,0.01,WeatherDisplay:10.37,2013-11-01 07:00:00,
2013-11-01 03:15:00,36.1,31.8,30.02,WNW,292,1.0,4.0,84,0.00,CLR,,0.01,WeatherDisplay:10.37,2013-11-01 07:15:00,
2013-11-01 03:30:00,35.8,31.7,30.03,WSW,252,2.0,4.0,85,0.00,CLR,,0.01,WeatherDisplay:10.37,2013-11-01 07:30:00,
2013-11-01 03:45:00,35.2,31.5,30.03,SW,225,1.0,4.0,86,0.00,CLR,,0.01,WeatherDisplay:10.37,2013-11-01 07:45:00,
2013-11-01 04:00:00,35.1,31.3,30.03,SW,225,2.0,4.0,86,0.00,CLR,,0.01,WeatherDisplay:10.37,2013-11-01 08:00:00,
2013-11-01 04:15:00,34.5,31.0,30.03,SW,225,2.0,4.0,87,0.00,CLR,,0.01,WeatherDisplay:10.37,2013-11-01 08:15:00,
2013-11-01 04:30:00,34.3,30.9,30.04,WSW,240,1.0,4.0,87,0.00,CLR,,0.01,WeatherDisplay:10.37,2013-11-01 08:30:00,
2013-11-01 04:45:00,34.0,30.8,30.04,WSW,247,1.0,4.0,88,0.00,CLR,,0.01,WeatherDisplay:10.37,2013-11-01 08:45:00,
2013-11-01 05:00:00,33.8,30.6,30.04,SW,225,2.0,4.0,88,0.00,CLR,,0.01,WeatherDisplay:10.37,2013-11-01 09:00:00,
2013-11-01 05:15:00,33.4,30.5,30.05,SW,225,2.0,4.0,89,0.00,CLR,,0.01,WeatherDisplay:10.37,2013-11-01 09:15:00,
2013-11-01 05:30:00,33.3,30.4,30.05,SW,225,2.0,4.0,89,0.00,CLR,,0.01,WeatherDisplay:10.37,2013-11-01 09:30:00,
2013-11-01 05:45:00,33.1,30.5,30.06,WSW,240,1.0,4.0,90,0.00,CLR,,0.01,WeatherDisplay:10.37,2013-11-01 09:45:00,
2013-11-01 06:00:00,32.7,30.1,30.06,WSW,240,2.0,4.0,90,0.00,CLR,,0.01,WeatherDisplay:10.37,2013-11-01 10:00:00,
2013-11-01 06:15:00,32.4,30.0,30.06,SW,225,2.0,4.0,91,0.00,CLR,,0.01,WeatherDisplay:10.37,2013-11-01 10:15:00,
2013-11-01 06:30:00,32.2,29.8,30.06,SW,225,2.0,5.0,91,0.00,CLR,,0.01,WeatherDisplay:10.37,2013-11-01 10:30:00,
2013-11-01 06:45:00,32.2,30.1,30.06,SW,225,1.0,5.0,92,0.00,CLR,,0.01,WeatherDisplay:10.37,2013-11-01 10:45:00,
2013-11-01 07:00:00,32.4,30.6,30.06,SW,225,2.0,4.0,93,0.00,CLR,,0.01,WeatherDisplay:10.37,2013-11-01 11:00:00,
2013-11-01 07:15:00,32.0,30.2,30.06,SW,225,1.0,4.0,93,0.00,CLR,,0.01,WeatherDisplay:10.37,2013-11-01 11:15:00,
2013-11-01 07:30:00,31.6,29.8,30.07,SW,225,2.0,4.0,93,0.00,CLR,,0.01,WeatherDisplay:10.37,2013-11-01 11:30:00,
2013-11-01 07:45:00,31.6,30.1,30.07,SW,225,2.0,4.0,94,0.00,CLR,,0.01,WeatherDisplay:10.37,2013-11-01 11:45:00,
2013-11-01 08:00:00,31.3,29.8,30.07,SW,225,1.0,4.0,94,0.00,CLR,,0.01,WeatherDisplay:10.37,2013-11-01 12:00:00,
2013-11-01 08:15:00,30.9,29.4,30.07,SW,225,2.0,4.0,94,0.00,CLR,,0.01,WeatherDisplay:10.37,2013-11-01 12:15:00,
2013-11-01 08:30:00,30.9,29.7,30.08,SW,225,2.0,4.0,95,0.00,CLR,,0.01,WeatherDisplay:10.37,2013-11-01 12:30:00,
2013-11-01 08:45:00,31.1,29.8,30.09,WSW,240,1.0,4.0,95,0.00,CLR,,0.01,WeatherDisplay:10.37,2013-11-01 12:45:00,
2013-11-01 09:00:00,30.9,29.9,30.08,WSW,240,2.0,4.0,96,0.00,CLR,,0.01,WeatherDisplay:10.37,2013-11-01 13:00:00,
2013-11-01 09:15:00,30.9,29.9,30.09,SW,225,1.0,4.0,96,0.00,CLR,,0.01,WeatherDisplay:10.37,2013-11-01 13:15:00,
2013-11-01 09:30:00,30.4,29.4,30.09,SW,225,1.0,3.0,96,0.00,CLR,,0.01,WeatherDisplay:10.37,2013-11-01 13:30:00,
2013-11-01 09:42:00,47.8,45.3,29.30,North,0,34.9,34.9,91,0.00,CLR,,0.64,WeatherDisplay:10.37,2013-11-01 13:42:00,
2013-11-01 09:43:00,47.8,45.3,29.30,North,0,25.3,25.3,91,0.00,CLR,,0.64,WeatherDisplay:10.37,2013-11-01 13:43:00,
2013-11-01 09:48:00,51.1,38.1,29.67,SW,225,7.0,14.0,61,0.00,CLR,,0.00,WeatherDisplay:10.37,2013-11-01 13:48:00,
2013-11-01 09:53:00,47.5,44.4,29.39,North,0,24.2,24.2,89,0.01,RA,,0.65,WeatherDisplay:10.37,2013-11-01 13:53:00,
2013-11-01 09:58:00,47.5,44.4,29.39,SW,225,18.4,18.4,89,0.01,CLR,,0.65,WeatherDisplay:10.37,2013-11-01 13:58:00,
2013-11-01 10:03:00,47.5,44.4,29.39,WSW,248,12.7,12.7,89,0.01,CLR,,0.65,WeatherDisplay:10.37,2013-11-01 14:03:00,
2013-11-01 10:08:00,47.5,44.4,29.39,SW,225,20.7,20.7,89,0.01,CLR,,0.65,WeatherDisplay:10.37,2013-11-01 14:08:00,
2013-11-01 10:13:00,47.5,44.4,29.39,West,270,15.0,15.0,89,0.01,CLR,,0.65,WeatherDisplay:10.37,2013-11-01 14:13:00,
2013-11-01 10:18:00,47.7,44.6,29.39,SW,225,18.4,18.4,89,0.01,CLR,,0.65,WeatherDisplay:10.37,2013-11-01 14:18:00,
2013-11-01 10:23:00,47.7,44.6,29.40,SW,225,12.7,12.7,89,0.01,CLR,,0.65,WeatherDisplay:10.37,2013-11-01 14:23:00,
2013-11-01 10:28:00,47.7,44.6,29.40,WSW,248,20.7,20.7,89,0.01,CLR,,0.65,WeatherDisplay:10.37,2013-11-01 14:28:00,
2013-11-01 10:33:00,47.7,44.6,29.39,West,270,20.7,20.7,89,0.01,CLR,,0.65,WeatherDisplay:10.37,2013-11-01 14:33:00,
2013-11-01 10:38:00,47.7,44.6,29.39,SW,225,17.3,17.3,89,0.01,CLR,,0.65,WeatherDisplay:10.37,2013-11-01 14:38:00,
2013-11-01 10:43:00,47.7,44.3,29.41,SW,225,23.0,23.0,88,0.01,CLR,,0.65,WeatherDisplay:10.37,2013-11-01 14:43:00,
2013-11-01 10:48:00,47.7,44.3,29.40,SW,225,17.3,17.3,88,0.00,CLR,,0.65,WeatherDisplay:10.37,2013-11-01 14:48:00,
2013-11-01 10:53:00,47.8,44.2,29.40,SW,225,20.7,20.7,87,0.00,CLR,,0.65,WeatherDisplay:10.37,2013-11-01 14:53:00,
2013-11-01 10:58:00,47.8,44.2,29.41,SW,225,17.3,17.3,87,0.00,CLR,,0.65,WeatherDisplay:10.37,2013-11-01 14:58:00,
2013-11-01 11:03:00,47.8,44.2,29.41,SW,225,16.1,16.1,87,0.00,CLR,,0.65,WeatherDisplay:10.37,2013-11-01 15:03:00,
2013-11-01 11:08:00,48.2,44.2,29.40,SW,225,17.3,17.3,86,0.00,CLR,,0.65,WeatherDisplay:10.37,2013-11-01 15:08:00,
2013-11-01 11:13:00,48.6,44.6,29.40,SW,225,13.8,13.8,86,0.00,CLR,,0.65,WeatherDisplay:10.37,2013-11-01 15:13:00,
2013-11-01 11:18:00,48.7,44.1,29.40,WSW,248,18.4,18.4,84,0.00,CLR,,0.65,WeatherDisplay:10.37,2013-11-01 15:18:00,
2013-11-01 11:23:00,49.1,44.5,29.40,WSW,248,16.1,16.1,84,0.00,CLR,,0.65,WeatherDisplay:10.37,2013-11-01 15:23:00,
2013-11-01 11:28:00,49.1,44.2,29.40,NW,315,19.6,19.6,83,0.00,CLR,,0.65,WeatherDisplay:10.37,2013-11-01 15:28:00,
2013-11-01 11:33:00,49.3,44.0,29.40,SW,225,15.0,15.0,82,0.00,CLR,,0.65,WeatherDisplay:10.37,2013-11-01 15:33:00,
2013-11-01 11:38:00,49.5,44.5,29.41,SW,225,19.6,19.6,83,0.00,CLR,,0.65,WeatherDisplay:10.37,2013-11-01 15:38:00,
2013-11-01 11:43:00,49.5,44.2,29.41,North,0,19.6,19.6,82,0.00,CLR,,0.65,WeatherDisplay:10.37,2013-11-01 15:43:00,
2013-11-01 11:48:00,49.5,44.2,29.41,NW,315,13.8,13.8,82,0.00,CLR,,0.65,WeatherDisplay:10.37,2013-11-01 15:48:00,
2013-11-01 11:53:00,49.6,44.4,29.42,West,270,16.1,16.1,82,0.00,CLR,,0.65,WeatherDisplay:10.37,2013-11-01 15:53:00,
2013-11-01 11:58:00,49.5,43.9,29.42,West,270,15.0,15.0,81,0.00,CLR,,0.65,WeatherDisplay:10.37,2013-11-01 15:58:00,
2013-11-01 12:03:00,49.5,43.9,29.42,West,270,15.0,15.0,81,0.00,CLR,,0.65,WeatherDisplay:10.37,2013-11-01 16:03:00,
2013-11-01 12:08:00,49.5,43.9,29.42,SW,225,15.0,15.0,81,0.00,CLR,,0.65,WeatherDisplay:10.37,2013-11-01 16:08:00,
2013-11-01 12:13:00,49.3,43.7,29.42,NW,315,12.7,12.7,81,0.00,CLR,,0.65,WeatherDisplay:10.37,2013-11-01 16:13:00,
2013-11-01 12:18:00,49.3,43.7,29.42,SW,225,15.0,15.0,81,0.00,CLR,,0.65,WeatherDisplay:10.37,2013-11-01 16:18:00,
2013-11-01 12:23:00,49.3,44.0,29.43,WSW,248,13.8,13.8,82,0.00,CLR,,0.65,WeatherDisplay:10.37,2013-11-01 16:23:00,
2013-11-01 12:28:00,49.3,43.7,29.43,NNE,22,17.3,17.3,81,0.00,CLR,,0.65,WeatherDisplay:10.37,2013-11-01 16:28:00,
2013-11-01 12:33:00,49.3,43.7,29.43,NW,315,12.1,12.1,81,0.00,CLR,,0.65,WeatherDisplay:10.37,2013-11-01 16:33:00,
2013-11-01 12:38:00,49.3,43.7,29.44,SW,225,17.3,17.3,81,0.00,CLR,,0.65,WeatherDisplay:10.37,2013-11-01 16:38:00,
2013-11-01 12:43:00,49.3,43.7,29.44,SW,225,19.6,19.6,81,0.00,CLR,,0.65,WeatherDisplay:10.37,2013-11-01 16:43:00,
2013-11-01 12:48:00,49.5,43.5,29.44,SW,225,15.0,15.0,80,0.00,CLR,,0.65,WeatherDisplay:10.37,2013-11-01 16:48:00,
2013-11-01 12:53:00,49.6,43.7,29.44,SW,225,17.3,17.3,80,0.00,CLR,,0.65,WeatherDisplay:10.37,2013-11-01 16:53:00,
2013-11-01 12:58:00,50.2,44.2,29.44,SW,225,13.8,13.8,80,0.00,CLR,,0.65,WeatherDisplay:10.37,2013-11-01 16:58:00,
2013-11-01 13:03:00,50.2,44.2,29.44,SW,225,9.2,9.2,80,0.00,CLR,,0.65,WeatherDisplay:10.37,2013-11-01 17:03:00,
2013-11-01 13:08:00,51.1,44.8,29.44,SW,225,18.4,18.4,79,0.00,CLR,,0.65,WeatherDisplay:10.37,2013-11-01 17:08:00,
2013-11-01 13:13:00,51.4,45.1,29.44,SW,225,12.7,12.7,79,0.00,CLR,,0.65,WeatherDisplay:10.37,2013-11-01 17:13:00,
2013-11-01 13:18:00,51.8,44.8,29.44,WSW,248,17.3,17.3,77,0.00,CLR,,0.65,WeatherDisplay:10.37,2013-11-01 17:18:00,
2013-11-01 13:23:00,51.8,44.5,29.44,West,270,16.1,16.1,76,0.00,CLR,,0.65,WeatherDisplay:10.37,2013-11-01 17:23:00,
2013-11-01 13:28:00,51.3,44.0,29.44,SW,225,20.7,20.7,76,0.00,CLR,,0.65,WeatherDisplay:10.37,2013-11-01 17:28:00,
2013-11-01 13:33:00,51.3,44.0,29.44,SW,225,16.1,16.1,76,0.00,CLR,,0.65,WeatherDisplay:10.37,2013-11-01 17:33:00,
2013-11-01 13:38:00,51.1,43.8,29.45,SW,225,17.3,17.3,76,0.00,CLR,,0.65,WeatherDisplay:10.37,2013-11-01 17:38:00,
2013-11-01 13:43:00,50.9,43.6,29.45,SW,225,12.7,12.7,76,0.00,CLR,,0.65,WeatherDisplay:10.37,2013-11-01 17:43:00,
2013-11-01 13:48:00,50.7,43.4,29.45,South,180,18.4,18.4,76,0.00,CLR,,0.65,WeatherDisplay:10.37,2013-11-01 17:48:00,
2013-11-01 13:53:00,51.1,43.8,29.45,SW,225,15.0,15.0,76,0.00,CLR,,0.65,WeatherDisplay:10.37,2013-11-01 17:53:00,
2013-11-01 13:58:00,51.1,43.8,29.45,NW,315,15.0,15.0,76,0.00,CLR,,0.65,WeatherDisplay:10.37,2013-11-01 17:58:00,
2013-11-01 14:03:00,51.1,43.8,29.44,WSW,248,10.4,10.4,76,0.00,CLR,,0.65,WeatherDisplay:10.37,2013-11-01 18:03:00,
2013-11-01 14:08:00,50.9,43.9,29.44,WNW,292,10.4,10.4,77,0.00,CLR,,0.65,WeatherDisplay:10.37,2013-11-01 18:08:00,
2013-11-01 14:13:00,50.7,43.8,29.45,SW,225,10.4,10.4,77,0.00,CLR,,0.65,WeatherDisplay:10.37,2013-11-01 18:13:00,
2013-11-01 14:18:00,50.5,43.6,29.45,SW,225,12.7,12.7,77,0.00,CLR,,0.65,WeatherDisplay:10.37,2013-11-01 18:18:00,
2013-11-01 14:23:00,50.4,43.4,29.45,SW,225,13.8,13.8,77,0.00,CLR,,0.65,WeatherDisplay:10.37,2013-11-01 18:23:00,
2013-11-01 14:28:00,50.4,43.4,29.45,West,270,13.8,13.8,77,0.00,CLR,,0.65,WeatherDisplay:10.37,2013-11-01 18:28:00,
2013-11-01 14:33:00,50.4,43.4,29.45,SW,225,12.7,12.7,77,0.00,CLR,,0.65,WeatherDisplay:10.37,2013-11-01 18:33:00,
2013-11-01 14:38:00,50.4,43.4,29.46,SW,225,12.7,12.7,77,0.00,CLR,,0.65,WeatherDisplay:10.37,2013-11-01 18:38:00,
2013-11-01 14:43:00,50.4,43.4,29.46,SSW,202,18.4,18.4,77,0.00,CLR,,0.65,WeatherDisplay:10.37,2013-11-01 18:43:00,
2013-11-01 14:48:00,50.4,43.8,29.46,North,0,12.7,12.7,78,0.00,CLR,,0.65,WeatherDisplay:10.37,2013-11-01 18:48:00,
2013-11-01 14:53:00,50.2,43.6,29.46,WNW,292,13.8,13.8,78,0.00,CLR,,0.65,WeatherDisplay:10.37,2013-11-01 18:53:00,
2013-11-01 14:58:00,50.2,43.6,29.46,SW,225,17.3,17.3,78,0.00,CLR,,0.65,WeatherDisplay:10.37,2013-11-01 18:58:00,
2013-11-01 15:03:00,50.0,43.4,29.47,SW,225,15.0,15.0,78,0.00,CLR,,0.65,WeatherDisplay:10.37,2013-11-01 19:03:00,
2013-11-01 15:08:00,50.2,43.9,29.47,SW,225,15.0,15.0,79,0.00,CLR,,0.65,WeatherDisplay:10.37,2013-11-01 19:08:00,
2013-11-01 15:13:00,50.2,43.9,29.46,SW,225,12.7,12.7,79,0.00,CLR,,0.65,WeatherDisplay:10.37,2013-11-01 19:13:00,
2013-11-01 15:18:00,50.4,44.1,29.47,SW,225,13.8,13.8,79,0.00,CLR,,0.65,WeatherDisplay:10.37,2013-11-01 19:18:00,
2013-11-01 15:23:00,50.4,44.1,29.47,SW,225,17.3,17.3,79,0.00,CLR,,0.65,WeatherDisplay:10.37,2013-11-01 19:23:00,
2013-11-01 15:28:00,50.5,43.9,29.47,SW,225,18.4,18.4,78,0.00,CLR,,0.65,WeatherDisplay:10.37,2013-11-01 19:28:00,
2013-11-01 15:33:00,50.5,44.3,29.47,SW,225,12.7,12.7,79,0.00,CLR,,0.65,WeatherDisplay:10.37,2013-11-01 19:33:00,
2013-11-01 15:38:00,50.4,43.8,29.48,NW,315,16.1,16.1,78,0.00,CLR,,0.65,WeatherDisplay:10.37,2013-11-01 19:38:00,
2013-11-01 15:43:00,50.4,43.8,29.47,SW,225,15.0,15.0,78,0.00,CLR,,0.65,WeatherDisplay:10.37,2013-11-01 19:43:00,
2013-11-01 15:48:00,50.2,43.9,29.47,NNE,22,12.7,12.7,79,0.00,CLR,,0.65,WeatherDisplay:10.37,2013-11-01 19:48:00,
2013-11-01 15:53:00,50.4,44.1,29.47,South,180,9.2,9.2,79,0.00,CLR,,0.65,WeatherDisplay:10.37,2013-11-01 19:53:00,
2013-11-01 15:58:00,50.5,44.3,29.47,WSW,248,12.7,12.7,79,0.00,CLR,,0.65,WeatherDisplay:10.37,2013-11-01 19:58:00,
2013-11-01 16:03:00,50.7,44.4,29.47,SW,225,11.5,11.5,79,0.00,CLR,,0.65,WeatherDisplay:10.37,2013-11-01 20:03:00,
2013-11-01 16:08:00,50.5,43.9,29.47,WSW,248,11.5,11.5,78,0.00,CLR,,0.65,WeatherDisplay:10.37,2013-11-01 20:08:00,
2013-11-01 16:13:00,50.4,43.8,29.47,WSW,248,11.5,11.5,78,0.00,CLR,,0.65,WeatherDisplay:10.37,2013-11-01 20:13:00,
2013-11-01 16:18:00,50.2,43.6,29.47,SW,225,15.0,15.0,78,0.00,CLR,,0.65,WeatherDisplay:10.37,2013-11-01 20:18:00,
2013-11-01 16:23:00,50.2,43.6,29.48,West,270,10.4,10.4,78,0.00,CLR,,0.65,WeatherDisplay:10.37,2013-11-01 20:23:00,
2013-11-01 16:28:00,50.0,43.4,29.48,SW,225,9.2,9.2,78,0.00,CLR,,0.65,WeatherDisplay:10.37,2013-11-01 20:28:00,
2013-11-01 16:33:00,50.0,43.4,29.48,SW,225,12.7,12.7,78,0.00,CLR,,0.65,WeatherDisplay:10.37,2013-11-01 20:33:00,
2013-11-01 16:38:00,50.0,43.7,29.48,SW,225,11.5,11.5,79,0.00,CLR,,0.65,WeatherDisplay:10.37,2013-11-01 20:38:00,
2013-11-01 16:43:00,49.8,43.6,29.48,SW,225,8.1,8.1,79,0.00,CLR,,0.65,WeatherDisplay:10.37,2013-11-01 20:43:00,
2013-11-01 16:48:00,49.6,43.7,29.48,SW,225,11.5,11.5,80,0.00,CLR,,0.65,WeatherDisplay:10.37,2013-11-01 20:48:00,
2013-11-01 16:53:00,49.6,44.0,29.49,SW,225,10.4,10.4,81,0.00,CLR,,0.65,WeatherDisplay:10.37,2013-11-01 20:53:00,
2013-11-01 16:58:00,49.5,43.9,29.49,WSW,248,16.1,16.1,81,0.00,CLR,,0.65,WeatherDisplay:10.37,2013-11-01 20:58:00,
2013-11-01 17:03:00,49.3,43.7,29.48,WNW,292,15.0,15.0,81,0.00,CLR,,0.65,WeatherDisplay:10.37,2013-11-01 21:03:00,
2013-11-01 17:08:00,49.1,43.8,29.49,West,270,15.0,15.0,82,0.00,CLR,,0.65,WeatherDisplay:10.37,2013-11-01 21:08:00,
2013-11-01 17:13:00,49.1,43.8,29.49,SW,225,17.3,17.3,82,0.00,CLR,,0.65,WeatherDisplay:10.37,2013-11-01 21:13:00,
2013-11-01 17:19:00,48.9,43.7,29.49,WSW,248,15.0,15.0,82,0.00,CLR,,0.65,WeatherDisplay:10.37,2013-11-01 21:19:00,
2013-11-01 17:24:00,48.9,44.0,29.49,NW,315,16.1,16.1,83,0.00,CLR,,0.65,WeatherDisplay:10.37,2013-11-01 21:24:00,
2013-11-01 17:29:00,48.7,43.8,29.49,SW,225,12.7,12.7,83,0.00,CLR,,0.65,WeatherDisplay:10.37,2013-11-01 21:29:00,
2013-11-01 17:34:00,48.7,44.1,29.49,SW,225,13.0,13.0,84,0.00,CLR,,0.65,WeatherDisplay:10.37,2013-11-01 21:34:00,
2013-11-01 17:39:00,48.6,43.9,29.49,SW,225,15.0,15.0,84,0.00,CLR,,0.65,WeatherDisplay:10.37,2013-11-01 21:39:00,
2013-11-01 17:44:00,48.4,44.1,29.50,SW,225,12.7,12.7,85,0.00,CLR,,0.65,WeatherDisplay:10.37,2013-11-01 21:44:00,
2013-11-01 17:49:00,48.2,43.9,29.50,NW,315,12.7,12.7,85,0.00,CLR,,0.65,WeatherDisplay:10.37,2013-11-01 21:49:00,
2013-11-01 17:54:00,48.2,43.9,29.50,SW,225,8.1,8.1,85,0.00,CLR,,0.65,WeatherDisplay:10.37,2013-11-01 21:54:00,
2013-11-01 17:59:00,48.2,44.2,29.50,SSW,202,15.2,15.2,86,0.00,CLR,,0.65,WeatherDisplay:10.37,2013-11-01 21:59:00,
2013-11-01 18:04:00,48.0,44.0,29.50,SW,225,11.5,11.5,86,0.00,CLR,,0.65,WeatherDisplay:10.37,2013-11-01 22:04:00,
2013-11-01 18:09:00,47.8,44.2,29.50,SW,225,11.5,11.5,87,0.00,CLR,,0.65,WeatherDisplay:10.37,2013-11-01 22:09:00,
2013-11-01 18:14:00,47.8,44.2,29.50,WSW,248,12.7,12.7,87,0.00,CLR,,0.65,WeatherDisplay:10.37,2013-11-01 22:14:00,
2013-11-01 18:19:00,47.7,44.0,29.50,SSW,202,8.1,8.1,87,0.00,CLR,,0.65,WeatherDisplay:10.37,2013-11-01 22:19:00,
2013-11-01 18:24:00,47.7,44.3,29.50,SW,225,12.7,12.7,88,0.00,CLR,,0.65,WeatherDisplay:10.37,2013-11-01 22:24:00,
2013-11-01 18:29:00,47.5,44.1,29.50,SW,225,8.1,8.1,88,0.00,CLR,,0.65,WeatherDisplay:10.37,2013-11-01 22:29:00,
2013-11-01 18:34:00,47.3,44.2,29.51,SW,225,12.7,12.7,89,0.00,CLR,,0.65,WeatherDisplay:10.37,2013-11-01 22:34:00,
2013-11-01 18:39:00,47.3,44.5,29.51,North,0,15.0,15.0,90,0.00,CLR,,0.65,WeatherDisplay:10.37,2013-11-01 22:39:00,
2013-11-01 18:44:00,47.1,44.3,29.51,SW,225,10.4,10.4,90,0.00,CLR,,0.65,WeatherDisplay:10.37,2013-11-01 22:44:00,
2013-11-01 18:49:00,46.9,44.4,29.51,WSW,248,15.0,15.0,91,0.00,CLR,,0.65,WeatherDisplay:10.37,2013-11-01 22:49:00,
2013-11-01 18:54:00,46.8,44.6,29.52,West,270,15.0,15.0,92,0.00,CLR,,0.65,WeatherDisplay:10.37,2013-11-01 22:54:00,
2013-11-01 18:59:00,46.6,44.4,29.51,SW,225,10.4,10.4,92,0.00,CLR,,0.65,WeatherDisplay:10.37,2013-11-01 22:59:00,
2013-11-01 19:04:00,46.6,44.4,29.51,SW,225,6.9,6.9,92,0.00,CLR,,0.65,WeatherDisplay:10.37,2013-11-01 23:04:00,
2013-11-01 19:09:00,46.4,44.5,29.52,SW,225,11.5,11.5,93,0.00,CLR,,0.65,WeatherDisplay:10.37,2013-11-01 23:09:00,
2013-11-01 19:14:00,46.4,44.5,29.52,SW,225,10.4,10.4,93,0.00,CLR,,0.65,WeatherDisplay:10.37,2013-11-01 23:14:00,
2013-11-01 19:19:00,46.4,44.8,29.52,SW,225,10.4,10.4,94,0.00,CLR,,0.65,WeatherDisplay:10.37,2013-11-01 23:19:00,
2013-11-01 19:24:00,46.2,44.6,29.52,SW,225,10.4,10.4,94,0.00,CLR,,0.65,WeatherDisplay:10.37,2013-11-01 23:24:00,
2013-11-01 19:29:00,46.2,44.9,29.52,SW,225,8.1,8.1,95,0.00,CLR,,0.65,WeatherDisplay:10.37,2013-11-01 23:29:00,
2013-11-01 19:34:00,46.2,44.9,29.52,SW,225,10.4,10.4,95,0.00,CLR,,0.65,WeatherDisplay:10.37,2013-11-01 23:34:00,
2013-11-01 19:39:00,46.2,45.1,29.52,West,270,11.5,11.5,96,0.00,CLR,,0.65,WeatherDisplay:10.37,2013-11-01 23:39:00,
2013-11-01 19:44:00,46.2,45.1,29.52,SW,225,10.4,10.4,96,0.00,CLR,,0.65,WeatherDisplay:10.37,2013-11-01 23:44:00,
2013-11-01 19:49:00,46.2,45.1,29.53,SSW,202,8.1,8.1,96,0.00,CLR,,0.65,WeatherDisplay:10.37,2013-11-01 23:49:00,
2013-11-01 19:54:00,46.2,45.1,29.53,South,180,8.1,8.1,96,0.00,CLR,,0.65,WeatherDisplay:10.37,2013-11-01 23:54:00,
2013-11-01 19:59:00,46.0,45.2,29.53,WSW,248,9.2,9.2,97,0.00,CLR,,0.65,WeatherDisplay:10.37,2013-11-01 23:59:00,
2013-11-01 20:04:00,46.0,45.2,29.53,SW,225,8.1,8.1,97,0.00,CLR,,0.65,WeatherDisplay:10.37,2013-11-02 00:04:00,
2013-11-01 20:09:00,46.0,45.2,29.53,SW,225,12.7,12.7,97,0.00,CLR,,0.65,WeatherDisplay:10.37,2013-11-02 00:09:00,
2013-11-01 20:14:00,46.0,45.5,29.53,SW,225,10.4,10.4,98,0.00,CLR,,0.65,WeatherDisplay:10.37,2013-11-02 00:14:00,
2013-11-01 20:19:00,46.0,45.5,29.53,SW,225,9.2,9.2,98,0.00,CLR,,0.65,WeatherDisplay:10.37,2013-11-02 00:19:00,
2013-11-01 20:24:00,46.0,45.5,29.53,SW,225,10.4,10.4,98,0.00,CLR,,0.65,WeatherDisplay:10.37,2013-11-02 00:24:00,
2013-11-01 20:29:00,45.9,45.3,29.53,SW,225,10.4,10.4,98,0.00,CLR,,0.65,WeatherDisplay:10.37,2013-11-02 00:29:00,
2013-11-01 20:34:00,46.0,45.5,29.53,SW,225,6.9,6.9,98,0.00,CLR,,0.65,WeatherDisplay:10.37,2013-11-02 00:34:00,
2013-11-01 20:39:00,46.0,45.8,29.53,SW,225,9.2,9.2,99,0.00,CLR,,0.65,WeatherDisplay:10.37,2013-11-02 00:39:00,
2013-11-01 20:44:00,46.0,45.8,29.53,SW,225,8.1,8.1,99,0.00,CLR,,0.65,WeatherDisplay:10.37,2013-11-02 00:44:00,
2013-11-01 20:49:00,45.9,45.6,29.53,NW,315,9.2,9.2,99,0.00,CLR,,0.65,WeatherDisplay:10.37,2013-11-02 00:49:00,
2013-11-01 20:54:00,46.0,45.8,29.53,North,0,8.1,8.1,99,0.00,CLR,,0.65,WeatherDisplay:10.37,2013-11-02 00:54:00,
2013-11-01 20:59:00,46.0,45.8,29.53,SW,225,9.2,9.2,99,0.00,CLR,,0.65,WeatherDisplay:10.37,2013-11-02 00:59:00,
2013-11-01 21:04:00,46.0,45.8,29.53,SW,225,6.9,6.9,99,0.00,CLR,,0.65,WeatherDisplay:10.37,2013-11-02 01:04:00,
2013-11-01 21:09:00,46.0,45.8,29.53,SW,225,8.1,8.1,99,0.00,CLR,,0.65,WeatherDisplay:10.37,2013-11-02 01:09:00,
2013-11-01 21:14:00,46.0,45.8,29.53,SW,225,8.1,8.1,99,0.00,CLR,,0.65,WeatherDisplay:10.37,2013-11-02 01:14:00,
2013-11-01 21:19:00,46.0,45.8,29.53,North,0,8.1,8.1,99,0.00,CLR,,0.65,WeatherDisplay:10.37,2013-11-02 01:19:00,
2013-11-01 21:24:00,46.0,45.8,29.53,SW,225,10.4,10.4,99,0.00,CLR,,0.65,WeatherDisplay:10.37,2013-11-02 01:24:00,
2013-11-01 21:32:00,46.0,45.8,29.53,North,0,9.2,0.0,99,0.00,CLR,,0.65,WeatherDisplay:10.37,2013-11-02 01:32:00,
2013-11-01 21:37:00,46.2,46.0,29.53,North,0,8.1,8.1,99,0.00,CLR,,0.65,WeatherDisplay:10.37,2013-11-02 01:37:00,
2013-11-01 21:42:00,46.2,46.0,29.53,SW,225,10.4,10.4,99,0.00,CLR,,0.65,WeatherDisplay:10.37,2013-11-02 01:42:00,
2013-11-01 21:47:00,46.2,46.0,29.54,SW,225,8.1,8.1,99,0.00,CLR,,0.65,WeatherDisplay:10.37,2013-11-02 01:47:00,
2013-11-01 21:52:00,46.2,46.0,29.53,SW,225,5.8,5.8,99,0.00,CLR,,0.65,WeatherDisplay:10.37,2013-11-02 01:52:00,
2013-11-01 21:57:00,46.2,46.0,29.54,West,270,11.5,11.5,99,0.00,CLR,,0.65,WeatherDisplay:10.37,2013-11-02 01:57:00,
2013-11-01 22:02:00,46.2,46.0,29.54,SW,225,8.1,8.1,99,0.00,CLR,,0.65,WeatherDisplay:10.37,2013-11-02 02:02:00,
2013-11-01 22:07:00,46.2,46.0,29.54,SW,225,8.1,8.1,99,0.00,CLR,,0.65,WeatherDisplay:10.37,2013-11-02 02:07:00,
2013-11-01 22:12:00,46.2,46.0,29.54,West,270,9.2,9.2,99,0.00,CLR,,0.65,WeatherDisplay:10.37,2013-11-02 02:12:00,
2013-11-01 22:17:00,46.2,46.0,29.54,NW,315,9.2,9.2,99,0.00,CLR,,0.65,WeatherDisplay:10.37,2013-11-02 02:17:00,
2013-11-01 22:22:00,46.2,46.0,29.54,SW,225,8.1,8.1,99,0.00,CLR,,0.65,WeatherDisplay:10.37,2013-11-02 02:22:00,
2013-11-01 22:27:00,46.2,46.0,29.54,SW,225,10.4,10.4,99,0.00,CLR,,0.65,WeatherDisplay:10.37,2013-11-02 02:27:00,
2013-11-01 22:32:00,46.4,46.1,29.55,SW,225,5.8,7.6,99,0.00,CLR,,0.65,WeatherDisplay:10.37,2013-11-02 02:32:00,
2013-11-01 22:37:00,46.2,46.0,29.54,SSW,202,8.1,8.1,99,0.00,CLR,,0.65,WeatherDisplay:10.37,2013-11-02 02:37:00,
2013-11-01 22:42:00,46.2,46.0,29.54,SSW,202,6.9,6.9,99,0.00,CLR,,0.65,WeatherDisplay:10.37,2013-11-02 02:42:00,
2013-11-01 22:47:00,46.2,46.0,29.55,WSW,248,5.8,5.8,99,0.00,CLR,,0.65,WeatherDisplay:10.37,2013-11-02 02:47:00,
2013-11-01 22:52:00,46.2,46.0,29.54,SW,225,9.2,9.2,99,0.00,CLR,,0.65,WeatherDisplay:10.37,2013-11-02 02:52:00,
2013-11-01 22:57:00,46.2,46.0,29.55,West,270,8.1,8.1,99,0.00,CLR,,0.65,WeatherDisplay:10.37,2013-11-02 02:57:00,
2013-11-01 23:02:00,46.2,46.0,29.54,SW,225,6.9,6.9,99,0.00,CLR,,0.65,WeatherDisplay:10.37,2013-11-02 03:02:00,
2013-11-01 23:07:00,46.2,46.0,29.55,West,270,6.9,6.9,99,0.00,CLR,,0.65,WeatherDisplay:10.37,2013-11-02 03:07:00,
2013-11-01 23:12:00,46.2,46.0,29.55,SW,225,6.9,6.9,99,0.00,CLR,,0.65,WeatherDisplay:10.37,2013-11-02 03:12:00,
2013-11-01 23:17:00,46.2,46.0,29.55,SW,225,5.8,5.8,99,0.00,CLR,,0.65,WeatherDisplay:10.37,2013-11-02 03:17:00,
2013-11-01 23:22:00,46.2,46.0,29.55,SW,225,8.1,8.1,99,0.00,CLR,,0.65,WeatherDisplay:10.37,2013-11-02 03:22:00,
2013-11-01 23:27:00,46.4,46.1,29.55,East,90,8.1,8.1,99,0.00,CLR,,0.65,WeatherDisplay:10.37,2013-11-02 03:27:00,
2013-11-01 23:33:00,46.2,46.0,29.55,SE,135,6.9,6.9,99,0.00,CLR,,0.65,WeatherDisplay:10.37,2013-11-02 03:33:00,
2013-11-01 23:38:00,46.2,46.0,29.55,SW,225,8.1,8.1,99,0.00,CLR,,0.65,WeatherDisplay:10.37,2013-11-02 03:38:00,
2013-11-01 23:43:00,46.2,46.0,29.55,West,270,4.6,4.6,99,0.00,CLR,,0.65,WeatherDisplay:10.37,2013-11-02 03:43:00,
2013-11-01 23:48:00,46.2,46.0,29.55,NW,315,5.8,5.8,99,0.00,CLR,,0.65,WeatherDisplay:10.37,2013-11-02 03:48:00,
2013-11-01 23:53:00,46.2,46.0,29.55,SW,225,10.4,10.4,99,0.00,CLR,,0.65,WeatherDisplay:10.37,2013-11-02 03:53:00,
2013-11-01 23:58:00,46.2,46.0,29.55,SW,225,4.6,4.6,99,0.00,CLR,,0.65,WeatherDisplay:10.37,2013-11-02 03:58:00,